Time;durP1;ratioP1;P1;durP2;ratioP2;P2;SDS_P1;SDS_P2;PMS_P1;PMS_P2;Temp;Humidity;BMP_temperature;BMP_pressure;BME280_temperature;BME280_humidity;BME280_pressure;Samples;Min_cycle;Max_cycle;Signal;HPM_P1;HPM_P2
2022/06/25 00:00:42;;;;;;;5.93;1.50;;;;;;;;;;10210694;29;20865;-82
2022/06/25 00:05:44;;;;;;;5.23;1.57;;;;;;;;;;10216415;29;20416;-82
2022/06/25 00:10:47;;;;;;;4.13;1.50;;;;;;;;;;10220036;28;20692;-82
2022/06/25 00:15:49;;;;;;;4.78;1.75;;;;;;;;;;10219121;29;20432;-83
2022/06/25 00:20:51;;;;;;;5.72;1.80;;;;;;;;;;10221662;29;20409;-83
2022/06/25 00:25:54;;;;;;;7.93;2.25;;;;;;;;;;10219198;29;20422;-83
2022/06/25 00:30:56;;;;;;;6.60;1.95;;;;;;;;;;10218353;29;21245;-82
2022/06/25 00:35:58;;;;;;;3.30;1.60;;;;;;;;;;10221972;29;20790;-82
2022/06/25 00:41:03;;;;;;;5.15;1.70;;;;;;;;;;10218867;29;20418;-83
2022/06/25 00:46:05;;;;;;;4.43;1.60;;;;;;;;;;10216702;29;20571;-82
2022/06/25 00:51:16;;;;;;;5.93;1.90;;;;;;;;;;10217176;28;20426;-83
2022/06/25 00:56:20;;;;;;;4.80;1.63;;;;;;;;;;10213273;29;20463;-82
2022/06/25 01:01:23;;;;;;;6.05;1.98;;;;;;;;;;10218575;29;20533;-83
2022/06/25 01:06:24;;;;;;;4.05;1.85;;;;;;;;;;10217097;29;20494;-82
2022/06/25 01:11:28;;;;;;;4.82;1.90;;;;;;;;;;10219918;29;21007;-82
2022/06/25 01:16:29;;;;;;;3.40;1.70;;;;;;;;;;10223195;29;20532;-83
2022/06/25 01:26:50;;;;;;;7.22;1.90;;;;;;;;;;10214818;29;20439;-82
2022/06/25 01:31:53;;;;;;;7.90;2.20;;;;;;;;;;10221086;29;20521;-82
2022/06/25 01:36:54;;;;;;;6.43;2.00;;;;;;;;;;10216989;29;20407;-82
2022/06/25 01:41:57;;;;;;;5.00;2.20;;;;;;;;;;10219853;29;20507;-82
2022/06/25 01:46:59;;;;;;;5.53;1.80;;;;;;;;;;10215351;29;20415;-82
2022/06/25 01:52:01;;;;;;;5.53;1.88;;;;;;;;;;10221696;29;20420;-82
2022/06/25 01:57:05;;;;;;;6.73;2.10;;;;;;;;;;10219816;29;20415;-83
2022/06/25 02:02:07;;;;;;;5.97;2.00;;;;;;;;;;10219591;29;20413;-83
2022/06/25 02:07:08;;;;;;;5.60;2.20;;;;;;;;;;10189212;29;20413;-82
2022/06/25 02:12:13;;;;;;;4.13;1.90;;;;;;;;;;10203781;29;20410;-82
2022/06/25 02:17:15;;;;;;;5.90;1.90;;;;;;;;;;10166720;29;20475;-82
2022/06/25 02:22:18;;;;;;;4.07;1.83;;;;;;;;;;10177558;29;20509;-83
2022/06/25 02:27:21;;;;;;;5.80;1.90;;;;;;;;;;10165052;29;20416;-82
2022/06/25 02:32:23;;;;;;;5.25;2.10;;;;;;;;;;10164441;29;20972;-83
2022/06/25 02:37:25;;;;;;;5.50;2.10;;;;;;;;;;10164761;29;20976;-82
2022/06/25 02:42:34;;;;;;;4.32;2.03;;;;;;;;;;10164160;29;20408;-83
2022/06/25 02:47:36;;;;;;;7.72;2.42;;;;;;;;;;10164288;29;20419;-82
2022/06/25 02:52:38;;;;;;;5.73;1.90;;;;;;;;;;10176047;29;20554;-82
2022/06/25 03:03:00;;;;;;;3.97;1.75;;;;;;;;;;10163451;29;20403;-82
2022/06/25 03:08:02;;;;;;;5.97;2.00;;;;;;;;;;10163763;29;20407;-82
2022/06/25 03:13:05;;;;;;;3.78;1.80;;;;;;;;;;10162961;29;20470;-83
2022/06/25 03:18:07;;;;;;;5.97;1.87;;;;;;;;;;10170865;29;20847;-82
2022/06/25 03:23:09;;;;;;;2.87;1.83;;;;;;;;;;10162285;29;20896;-83
2022/06/25 03:28:12;;;;;;;4.57;1.73;;;;;;;;;;10163062;29;20443;-82
2022/06/25 03:33:15;;;;;;;14.82;2.80;;;;;;;;;;10162635;29;20434;-82
2022/06/25 03:38:17;;;;;;;11.93;2.88;;;;;;;;;;10162572;29;20884;-82
2022/06/25 03:43:21;;;;;;;7.53;2.63;;;;;;;;;;10162563;29;20490;-82
2022/06/25 03:48:23;;;;;;;5.15;1.90;;;;;;;;;;10161524;29;20421;-82
2022/06/25 03:53:24;;;;;;;4.53;1.98;;;;;;;;;;10161617;29;20972;-83
2022/06/25 03:58:29;;;;;;;7.55;2.35;;;;;;;;;;10161372;29;20423;-82
2022/06/25 04:03:31;;;;;;;4.68;1.80;;;;;;;;;;10162327;29;20937;-82
2022/06/25 04:08:33;;;;;;;4.90;1.80;;;;;;;;;;10201792;29;20777;-82
2022/06/25 04:13:38;;;;;;;4.32;1.77;;;;;;;;;;10227384;29;20482;-82
2022/06/25 04:18:41;;;;;;;5.88;1.92;;;;;;;;;;10214688;29;20719;-84
2022/06/25 04:23:43;;;;;;;4.73;1.97;;;;;;;;;;10230655;29;20420;-82
2022/06/25 04:29:08;;;;;;;4.90;2.20;;;;;;;;;;10224468;29;20404;-83
2022/06/25 04:34:11;;;;;;;6.07;2.07;;;;;;;;;;10223317;29;20428;-83
2022/06/25 04:39:13;;;;;;;4.03;2.10;;;;;;;;;;10228535;29;20423;-83
2022/06/25 04:44:17;;;;;;;5.90;2.50;;;;;;;;;;10223923;29;20873;-84
2022/06/25 04:49:18;;;;;;;5.53;2.63;;;;;;;;;;10218157;29;20423;-83
2022/06/25 04:54:20;;;;;;;4.70;2.70;;;;;;;;;;10224026;29;20796;-83
2022/06/25 04:59:23;;;;;;;4.40;2.25;;;;;;;;;;10228661;28;20408;-83
2022/06/25 05:04:25;;;;;;;4.72;2.15;;;;;;;;;;10220919;29;20447;-83
2022/06/25 05:09:27;;;;;;;6.60;2.30;;;;;;;;;;10221520;29;20893;-83
2022/06/25 05:14:30;;;;;;;4.63;2.00;;;;;;;;;;10222809;29;20428;-83
2022/06/25 05:19:32;;;;;;;4.05;1.90;;;;;;;;;;10214778;29;20495;-83
2022/06/25 05:24:34;;;;;;;2.95;1.92;;;;;;;;;;10227637;29;20419;-83
2022/06/25 05:29:37;;;;;;;4.35;2.00;;;;;;;;;;10226954;29;20418;-83
2022/06/25 05:34:39;;;;;;;3.28;1.77;;;;;;;;;;10215468;29;20785;-82
2022/06/25 05:39:41;;;;;;;2.97;1.40;;;;;;;;;;10230198;29;20897;-82
2022/06/25 05:44:44;;;;;;;3.58;1.92;;;;;;;;;;10225452;29;20536;-83
2022/06/25 05:49:46;;;;;;;4.70;2.00;;;;;;;;;;10220802;29;20791;-83
2022/06/25 05:54:48;;;;;;;3.47;1.85;;;;;;;;;;10225427;29;20450;-83
2022/06/25 05:59:51;;;;;;;6.73;1.90;;;;;;;;;;10227818;29;20416;-83
2022/06/25 06:04:53;;;;;;;5.22;1.92;;;;;;;;;;10221476;29;21101;-83
2022/06/25 06:09:55;;;;;;;4.70;1.77;;;;;;;;;;10224295;29;20404;-83
2022/06/25 06:15:00;;;;;;;3.90;1.90;;;;;;;;;;10224201;29;20475;-83
2022/06/25 06:20:02;;;;;;;6.80;2.27;;;;;;;;;;10201495;29;20420;-83
2022/06/25 06:25:05;;;;;;;6.10;2.37;;;;;;;;;;10197976;29;21123;-83
2022/06/25 06:30:10;;;;;;;3.70;1.77;;;;;;;;;;10177912;29;20410;-83
2022/06/25 06:35:12;;;;;;;3.80;1.80;;;;;;;;;;10198876;29;20936;-83
2022/06/25 06:40:15;;;;;;;3.70;1.70;;;;;;;;;;10196464;29;20420;-83
2022/06/25 06:45:18;;;;;;;3.60;1.70;;;;;;;;;;10223060;29;20435;-83
2022/06/25 06:50:19;;;;;;;4.22;2.05;;;;;;;;;;10218657;29;20483;-89
2022/06/25 06:55:21;;;;;;;4.30;1.70;;;;;;;;;;10182620;29;20436;-82
2022/06/25 07:00:24;;;;;;;3.45;1.67;;;;;;;;;;10184582;29;20423;-82
2022/06/25 07:05:26;;;;;;;4.50;1.73;;;;;;;;;;10182820;29;20901;-82
2022/06/25 07:10:33;;;;;;;2.67;1.60;;;;;;;;;;10187619;29;20484;-83
2022/06/25 07:15:36;;;;;;;4.75;1.80;;;;;;;;;;10181659;29;20442;-82
2022/06/25 07:20:38;;;;;;;4.75;1.70;;;;;;;;;;10199568;29;20444;-93
2022/06/25 07:25:40;;;;;;;4.53;1.83;;;;;;;;;;10206526;29;20483;-93
2022/06/25 07:30:43;;;;;;;3.80;1.80;;;;;;;;;;10203759;29;20528;-92
2022/06/25 07:35:48;;;;;;;4.07;1.95;;;;;;;;;;10197421;28;20512;-94
2022/06/25 07:40:53;;;;;;;6.63;2.17;;;;;;;;;;10198489;29;20908;-93
2022/06/25 07:45:57;;;;;;;5.50;2.13;;;;;;;;;;10181903;29;20471;-92
2022/06/25 07:56:18;;;;;;;7.57;2.42;;;;;;;;;;10201497;29;20424;-94
2022/06/25 08:01:22;;;;;;;6.63;1.88;;;;;;;;;;10224043;29;21203;-94
2022/06/25 08:06:23;;;;;;;6.32;2.10;;;;;;;;;;10213841;28;20563;-94
2022/06/25 08:11:25;;;;;;;7.65;2.08;;;;;;;;;;10219435;29;20424;-93
2022/06/25 08:16:29;;;;;;;10.27;2.60;;;;;;;;;;10225286;28;20518;-94
2022/06/25 08:21:31;;;;;;;4.45;2.33;;;;;;;;;;10206912;29;20416;-94
2022/06/25 08:26:33;;;;;;;5.22;2.53;;;;;;;;;;10228204;29;20871;-94
2022/06/25 08:31:36;;;;;;;6.15;2.42;;;;;;;;;;10222424;28;20444;-93
2022/06/25 08:36:38;;;;;;;5.83;1.93;;;;;;;;;;10223633;28;20463;-94
2022/06/25 08:41:42;;;;;;;6.05;2.13;;;;;;;;;;10227532;29;20418;-94
2022/06/25 08:46:45;;;;;;;6.30;2.30;;;;;;;;;;10232417;29;20449;-93
2022/06/25 08:51:48;;;;;;;5.30;2.83;;;;;;;;;;10210176;29;20499;-93
2022/06/25 08:56:50;;;;;;;4.15;2.10;;;;;;;;;;10220820;29;20546;-93
2022/06/25 09:01:53;;;;;;;5.30;2.30;;;;;;;;;;10230444;28;20412;-87
2022/06/25 09:07:11;;;;;;;4.32;1.80;;;;;;;;;;10224415;29;20724;-88
2022/06/25 09:12:14;;;;;;;6.50;1.73;;;;;;;;;;10229036;29;20797;-77
2022/06/25 09:17:17;;;;;;;6.22;2.15;;;;;;;;;;10208518;29;20438;-86
2022/06/25 09:22:21;;;;;;;6.65;2.33;;;;;;;;;;10216161;29;20424;-87
2022/06/25 09:27:35;;;;;;;5.57;2.00;;;;;;;;;;10225030;29;21141;-86
2022/06/25 09:32:46;;;;;;;5.78;1.98;;;;;;;;;;10199996;29;20483;-87
2022/06/25 09:37:48;;;;;;;6.13;1.90;;;;;;;;;;10203183;29;20459;-87
2022/06/25 09:42:51;;;;;;;5.07;2.00;;;;;;;;;;10211386;29;20414;-86
2022/06/25 09:47:56;;;;;;;4.23;1.70;;;;;;;;;;10224921;29;20768;-87
2022/06/25 09:53:00;;;;;;;6.17;2.00;;;;;;;;;;10220727;29;20434;-86
2022/06/25 09:58:03;;;;;;;6.45;1.63;;;;;;;;;;10195579;29;20440;-87
2022/06/25 10:03:07;;;;;;;6.20;1.70;;;;;;;;;;10198968;29;20951;-86
2022/06/25 10:08:11;;;;;;;6.05;1.70;;;;;;;;;;10191015;29;20400;-76
2022/06/25 10:13:14;;;;;;;5.18;1.80;;;;;;;;;;10193062;29;20431;-88
2022/06/25 10:18:17;;;;;;;5.95;1.73;;;;;;;;;;10190960;29;20435;-88
2022/06/25 10:23:22;;;;;;;6.18;1.58;;;;;;;;;;10194850;29;20434;-88
2022/06/25 10:28:31;;;;;;;5.00;1.40;;;;;;;;;;10200920;29;20493;-95
2022/06/25 10:33:52;;;;;;;4.67;1.20;;;;;;;;;;10215440;28;20486;-88
2022/06/25 10:38:54;;;;;;;3.33;1.40;;;;;;;;;;10199017;29;20427;-86
2022/06/25 10:43:58;;;;;;;6.07;1.37;;;;;;;;;;10187442;29;20426;-83
2022/06/25 10:49:06;;;;;;;4.57;1.50;;;;;;;;;;10190514;29;20475;-86
2022/06/25 10:54:13;;;;;;;5.30;1.92;;;;;;;;;;10209849;29;20445;-96
2022/06/25 10:59:48;;;;;;;5.10;1.83;;;;;;;;;;10245432;28;20419;-96
2022/06/25 11:04:53;;;;;;;4.13;1.60;;;;;;;;;;10144131;29;21304;-94
2022/06/25 11:09:58;;;;;;;2.90;1.60;;;;;;;;;;10199558;29;20805;-89
2022/06/25 11:15:01;;;;;;;2.90;1.23;;;;;;;;;;10236272;29;20515;-87
2022/06/25 11:20:09;;;;;;;4.75;1.40;;;;;;;;;;10218070;29;20494;-85
2022/06/25 11:30:30;;;;;;;4.23;1.30;;;;;;;;;;10184900;29;20392;-86
2022/06/25 11:35:42;;;;;;;4.35;1.30;;;;;;;;;;10183382;29;20441;-87
2022/06/25 11:40:44;;;;;;;4.88;1.50;;;;;;;;;;10204298;29;20522;-89
2022/06/25 11:45:53;;;;;;;2.47;1.30;;;;;;;;;;10200082;28;20427;-88
2022/06/25 11:50:59;;;;;;;4.20;1.42;;;;;;;;;;10207320;29;20420;-88
2022/06/25 11:56:03;;;;;;;4.38;1.42;;;;;;;;;;10205029;29;20430;-88
2022/06/25 12:01:06;;;;;;;3.95;1.70;;;;;;;;;;10198513;29;20462;-88
2022/06/25 12:06:11;;;;;;;6.57;1.38;;;;;;;;;;10180772;29;20513;-88
2022/06/25 12:11:13;;;;;;;4.73;1.67;;;;;;;;;;10186296;29;20427;-88
2022/06/25 12:16:15;;;;;;;2.50;1.42;;;;;;;;;;10198159;29;20442;-89
2022/06/25 12:21:20;;;;;;;4.40;1.20;;;;;;;;;;10208556;29;20931;-88
2022/06/25 12:26:29;;;;;;;4.20;1.20;;;;;;;;;;10192375;29;20435;-88
2022/06/25 12:31:31;;;;;;;5.70;1.30;;;;;;;;;;10196450;29;20424;-89
2022/06/25 12:36:37;;;;;;;2.50;1.57;;;;;;;;;;10199079;29;20475;-87
2022/06/25 12:41:46;;;;;;;3.95;1.63;;;;;;;;;;10214063;29;20424;-88
2022/06/25 12:47:02;;;;;;;4.67;1.43;;;;;;;;;;10228015;29;20415;-88
2022/06/25 12:52:06;;;;;;;3.50;1.30;;;;;;;;;;10222514;29;20426;-88
2022/06/25 12:57:22;;;;;;;4.40;1.27;;;;;;;;;;10220058;29;20773;-89
2022/06/25 13:02:25;;;;;;;4.45;1.50;;;;;;;;;;10187219;29;20417;-88
2022/06/25 13:07:28;;;;;;;3.40;1.40;;;;;;;;;;10193448;29;20750;-88
2022/06/25 13:12:30;;;;;;;5.22;1.45;;;;;;;;;;10198218;29;20499;-88
2022/06/25 13:17:33;;;;;;;3.30;1.17;;;;;;;;;;10203738;29;20824;-88
2022/06/25 13:22:40;;;;;;;2.65;1.20;;;;;;;;;;10212074;28;20442;-89
2022/06/25 13:27:45;;;;;;;3.90;1.20;;;;;;;;;;10209209;29;20412;-89
2022/06/25 13:32:47;;;;;;;3.97;1.30;;;;;;;;;;10212347;29;20809;-88
2022/06/25 13:37:50;;;;;;;3.22;1.30;;;;;;;;;;10216788;29;21044;-86
2022/06/25 13:42:52;;;;;;;3.40;1.02;;;;;;;;;;10232457;29;20785;-88
2022/06/25 13:47:53;;;;;;;2.92;1.13;;;;;;;;;;10229687;29;20426;-88
2022/06/25 13:52:57;;;;;;;2.53;1.10;;;;;;;;;;10213850;29;20417;-88
2022/06/25 13:57:58;;;;;;;2.90;0.80;;;;;;;;;;10201445;29;20453;-88
2022/06/25 14:03:01;;;;;;;2.53;0.80;;;;;;;;;;10192707;28;20420;-86
2022/06/25 14:08:06;;;;;;;1.45;0.70;;;;;;;;;;10186355;29;20424;-86
2022/06/25 14:13:08;;;;;;;1.70;0.60;;;;;;;;;;10193434;29;20478;-88
2022/06/25 14:18:12;;;;;;;1.13;0.50;;;;;;;;;;10191502;29;20429;-87
2022/06/25 14:23:16;;;;;;;3.20;0.77;;;;;;;;;;10199823;29;20433;-87
2022/06/25 14:28:18;;;;;;;1.67;0.60;;;;;;;;;;10209636;29;20420;-87
2022/06/25 14:33:21;;;;;;;2.80;0.80;;;;;;;;;;10212415;28;20455;-86
2022/06/25 14:43:44;;;;;;;1.77;0.63;;;;;;;;;;10211995;29;20436;-87
2022/06/25 14:48:46;;;;;;;1.40;0.80;;;;;;;;;;10199136;29;20424;-90
2022/06/25 14:53:49;;;;;;;1.40;0.68;;;;;;;;;;10209791;29;20656;-87
2022/06/25 14:58:51;;;;;;;1.60;0.60;;;;;;;;;;10201313;29;20465;-88
2022/06/25 15:03:54;;;;;;;2.10;0.80;;;;;;;;;;10194476;29;20433;-86
2022/06/25 15:08:57;;;;;;;3.22;0.65;;;;;;;;;;10202062;29;20436;-85
2022/06/25 15:14:01;;;;;;;2.15;0.80;;;;;;;;;;10216500;29;20431;-85
2022/06/25 15:19:02;;;;;;;3.15;0.80;;;;;;;;;;10208759;29;20443;-85
2022/06/25 15:24:06;;;;;;;2.30;0.90;;;;;;;;;;10214244;29;20918;-84
2022/06/25 15:29:08;;;;;;;1.77;0.60;;;;;;;;;;10186938;29;20418;-85
2022/06/25 15:34:10;;;;;;;2.77;0.80;;;;;;;;;;10206523;29;20413;-85
2022/06/25 15:39:13;;;;;;;2.70;0.70;;;;;;;;;;10204357;29;20436;-85
2022/06/25 15:44:15;;;;;;;1.00;0.63;;;;;;;;;;10187352;28;20442;-84
2022/06/25 15:49:17;;;;;;;2.53;0.60;;;;;;;;;;10192824;29;20795;-84
2022/06/25 15:54:20;;;;;;;0.60;0.50;;;;;;;;;;10206809;29;20428;-85
2022/06/25 15:59:33;;;;;;;1.13;0.60;;;;;;;;;;10200170;29;20447;-85
2022/06/25 16:04:35;;;;;;;3.67;0.70;;;;;;;;;;10212622;29;20434;-82
2022/06/25 16:09:38;;;;;;;2.05;0.80;;;;;;;;;;10206072;29;20418;-86
2022/06/25 16:14:40;;;;;;;1.80;0.90;;;;;;;;;;10214967;29;20428;-87
2022/06/25 16:19:42;;;;;;;2.58;0.98;;;;;;;;;;10208609;29;20428;-88
2022/06/25 16:24:45;;;;;;;3.97;1.30;;;;;;;;;;10207587;29;20424;-87
2022/06/25 16:29:47;;;;;;;4.53;0.98;;;;;;;;;;10208792;29;20419;-85
2022/06/25 16:34:48;;;;;;;3.40;1.13;;;;;;;;;;10172283;29;20433;-86
2022/06/25 16:39:51;;;;;;;3.10;1.30;;;;;;;;;;10177303;29;20442;-86
2022/06/25 16:44:53;;;;;;;2.87;1.20;;;;;;;;;;10194056;29;20754;-86
2022/06/25 16:49:55;;;;;;;2.20;1.00;;;;;;;;;;10215527;29;20487;-87
2022/06/25 16:54:59;;;;;;;2.38;1.10;;;;;;;;;;10203280;28;20426;-87
2022/06/25 17:00:00;;;;;;;2.55;1.17;;;;;;;;;;10215818;29;20488;-86
2022/06/25 17:05:02;;;;;;;3.03;1.30;;;;;;;;;;10187778;29;20784;-84
2022/06/25 17:10:06;;;;;;;5.10;1.33;;;;;;;;;;10178581;29;20462;-93
2022/06/25 17:15:09;;;;;;;4.33;1.50;;;;;;;;;;10184213;29;20431;-83
2022/06/25 17:20:11;;;;;;;2.55;1.00;;;;;;;;;;10177581;29;20452;-82
2022/06/25 17:25:15;;;;;;;4.00;1.38;;;;;;;;;;10180944;29;20495;-82
2022/06/25 17:30:17;;;;;;;4.70;1.30;;;;;;;;;;10194900;29;20440;-85
2022/06/25 17:35:19;;;;;;;3.72;1.00;;;;;;;;;;10201824;29;20408;-85
2022/06/25 17:40:22;;;;;;;3.55;1.10;;;;;;;;;;10207740;29;20459;-85
2022/06/25 17:45:24;;;;;;;2.83;1.10;;;;;;;;;;10189099;29;20433;-79
2022/06/25 17:50:27;;;;;;;3.60;1.05;;;;;;;;;;10197515;29;20529;-85
2022/06/25 17:55:31;;;;;;;2.05;1.05;;;;;;;;;;10184676;29;20431;-85
2022/06/25 18:00:32;;;;;;;4.68;1.33;;;;;;;;;;10201843;29;20445;-86
2022/06/25 18:05:34;;;;;;;5.40;1.20;;;;;;;;;;10190998;29;20910;-86
2022/06/25 18:10:38;;;;;;;2.00;1.08;;;;;;;;;;10200417;29;20435;-78
2022/06/25 18:15:39;;;;;;;2.47;1.30;;;;;;;;;;10226457;29;20506;-87
2022/06/25 18:20:41;;;;;;;3.15;1.40;;;;;;;;;;10202072;29;20511;-87
2022/06/25 18:25:44;;;;;;;3.53;1.75;;;;;;;;;;10212416;29;20498;-87
2022/06/25 18:30:46;;;;;;;4.30;1.40;;;;;;;;;;10222771;29;20426;-86
2022/06/25 18:35:48;;;;;;;4.90;1.20;;;;;;;;;;10214196;29;20470;-86
2022/06/25 18:40:51;;;;;;;3.92;1.30;;;;;;;;;;10224517;29;20408;-86
2022/06/25 18:45:53;;;;;;;3.28;1.20;;;;;;;;;;10207803;29;20417;-90
2022/06/25 18:50:55;;;;;;;13.60;8.07;;;;;;;;;;10215708;29;20745;-86
2022/06/25 18:55:58;;;;;;;23.55;14.95;;;;;;;;;;10220812;29;20458;-86
2022/06/25 19:01:02;;;;;;;8.70;4.30;;;;;;;;;;10223651;29;20510;-86
2022/06/25 19:06:03;;;;;;;24.00;15.65;;;;;;;;;;10198558;29;20435;-83
2022/06/25 19:11:07;;;;;;;44.55;26.80;;;;;;;;;;10193091;29;20800;-83
2022/06/25 19:16:09;;;;;;;4.95;2.47;;;;;;;;;;10184294;29;20920;-85
2022/06/25 19:21:11;;;;;;;26.35;17.17;;;;;;;;;;10198108;29;20954;-85
2022/06/25 19:26:14;;;;;;;9.30;2.58;;;;;;;;;;10194839;29;20518;-90
2022/06/25 19:31:16;;;;;;;30.20;18.98;;;;;;;;;;10191745;29;20428;-83
2022/06/25 19:36:19;;;;;;;23.58;15.32;;;;;;;;;;10190974;29;20849;-84
2022/06/25 19:41:23;;;;;;;17.67;11.70;;;;;;;;;;10187583;29;21033;-85
2022/06/25 19:46:25;;;;;;;22.38;11.90;;;;;;;;;;10190772;29;21290;-85
2022/06/25 19:51:27;;;;;;;12.97;9.60;;;;;;;;;;10187205;29;20507;-86
2022/06/25 19:56:32;;;;;;;11.65;6.90;;;;;;;;;;10185973;29;20445;-86
2022/06/25 20:01:34;;;;;;;4.45;2.17;;;;;;;;;;10185809;29;20438;-84
2022/06/25 20:06:37;;;;;;;4.30;2.60;;;;;;;;;;10175367;29;20512;-85
2022/06/25 20:11:40;;;;;;;6.77;2.43;;;;;;;;;;10183215;29;20412;-84
2022/06/25 20:16:42;;;;;;;5.50;3.07;;;;;;;;;;10184307;29;20439;-84
2022/06/25 20:21:46;;;;;;;6.55;2.50;;;;;;;;;;10185269;29;20414;-83
2022/06/25 20:26:50;;;;;;;6.30;2.50;;;;;;;;;;10190645;29;20506;-84
2022/06/25 20:31:51;;;;;;;4.03;2.55;;;;;;;;;;10191042;29;20452;-85
2022/06/25 20:36:53;;;;;;;6.07;2.57;;;;;;;;;;10194794;29;20523;-84
2022/06/25 20:41:56;;;;;;;6.70;2.80;;;;;;;;;;10202750;29;20414;-84
2022/06/25 20:46:58;;;;;;;7.65;2.90;;;;;;;;;;10193510;29;20437;-85
2022/06/25 20:52:00;;;;;;;4.72;2.47;;;;;;;;;;10197275;29;20423;-85
2022/06/25 20:57:04;;;;;;;6.63;2.75;;;;;;;;;;10195251;29;20439;-85
2022/06/25 21:02:05;;;;;;;7.27;2.90;;;;;;;;;;10192652;29;20565;-84
2022/06/25 21:12:28;;;;;;;9.60;3.70;;;;;;;;;;10198294;29;20390;-84
2022/06/25 21:17:30;;;;;;;5.97;2.93;;;;;;;;;;10204055;29;20521;-84
2022/06/25 21:22:32;;;;;;;20.60;12.63;;;;;;;;;;10201528;29;20421;-83
2022/06/25 21:27:35;;;;;;;24.67;14.88;;;;;;;;;;10199644;29;20510;-85
2022/06/25 21:32:37;;;;;;;25.70;14.85;;;;;;;;;;10204640;29;20413;-85
2022/06/25 21:37:39;;;;;;;16.10;9.15;;;;;;;;;;10201124;29;20434;-83
2022/06/25 21:42:43;;;;;;;11.07;7.75;;;;;;;;;;10209898;28;20815;-85
2022/06/25 21:47:45;;;;;;;10.82;6.05;;;;;;;;;;10216206;29;20407;-83
2022/06/25 21:52:48;;;;;;;13.32;7.53;;;;;;;;;;10212702;29;20415;-84
2022/06/25 21:57:52;;;;;;;12.68;7.22;;;;;;;;;;10203913;29;20770;-84
2022/06/25 22:02:54;;;;;;;5.63;3.58;;;;;;;;;;10214190;29;20421;-82
2022/06/25 22:07:56;;;;;;;6.53;3.30;;;;;;;;;;10219012;29;20439;-84
2022/06/25 22:13:00;;;;;;;8.80;3.40;;;;;;;;;;10214974;29;20823;-84
2022/06/25 22:18:02;;;;;;;7.32;3.30;;;;;;;;;;10204767;29;20790;-84
2022/06/25 22:23:03;;;;;;;6.43;3.60;;;;;;;;;;10196543;29;20779;-84
2022/06/25 22:28:07;;;;;;;6.70;3.43;;;;;;;;;;10184976;29;20908;-84
2022/06/25 22:33:09;;;;;;;8.90;3.80;;;;;;;;;;10197510;29;20502;-84
2022/06/25 22:38:12;;;;;;;8.20;3.53;;;;;;;;;;10201830;29;20803;-84
2022/06/25 22:43:15;;;;;;;5.38;3.33;;;;;;;;;;10201270;29;20841;-84
2022/06/25 22:48:17;;;;;;;7.43;3.75;;;;;;;;;;10194418;29;20844;-84
2022/06/25 22:53:20;;;;;;;6.07;3.70;;;;;;;;;;10204454;28;20408;-84
2022/06/25 22:58:23;;;;;;;7.82;3.63;;;;;;;;;;10206229;29;20518;-83
2022/06/25 23:03:25;;;;;;;8.00;3.90;;;;;;;;;;10194820;29;20433;-83
2022/06/25 23:08:27;;;;;;;8.75;4.38;;;;;;;;;;10198143;29;20496;-84
2022/06/25 23:13:30;;;;;;;7.00;3.93;;;;;;;;;;10228573;29;20409;-82
2022/06/25 23:18:32;;;;;;;8.13;4.50;;;;;;;;;;10224333;29;20435;-84
2022/06/25 23:23:34;;;;;;;9.50;4.60;;;;;;;;;;10217979;29;20672;-83
2022/06/25 23:28:37;;;;;;;8.95;4.57;;;;;;;;;;10219800;29;20414;-83
2022/06/25 23:33:39;;;;;;;13.57;5.00;;;;;;;;;;10222009;29;20409;-82
2022/06/25 23:38:40;;;;;;;9.38;4.53;;;;;;;;;;10212791;29;20501;-83
2022/06/25 23:43:43;;;;;;;9.23;4.95;;;;;;;;;;10223117;29;20441;-82
2022/06/25 23:48:45;;;;;;;8.82;4.80;;;;;;;;;;10226030;29;20431;-83
2022/06/25 23:53:47;;;;;;;10.85;4.97;;;;;;;;;;10229423;29;20491;-82
2022/06/25 23:58:50;;;;;;;10.50;5.20;;;;;;;;;;10227605;29;20428;-83
